sensor_id;sensor_type;location;lat;lon;timestamp;pressure;altitude;pressure_sealevel;temperature;humidity
83248;BME280;73465;51.038;7.052;2024-03-22T00:01:47;101494.94;;;9.37;79.26
83248;BME280;73465;51.038;7.052;2024-03-22T00:04:13;101493.38;;;9.31;79.53
83248;BME280;73465;51.038;7.052;2024-03-22T00:06:41;101488.78;;;9.38;79.17
83248;BME280;73465;51.038;7.052;2024-03-22T00:09:08;101485.00;;;9.48;78.33
83248;BME280;73465;51.038;7.052;2024-03-22T00:11:34;101494.41;;;9.57;78.18
83248;BME280;73465;51.038;7.052;2024-03-22T00:13:59;101494.44;;;9.55;78.54
83248;BME280;73465;51.038;7.052;2024-03-22T00:16:25;101494.66;;;9.47;78.62
83248;BME280;73465;51.038;7.052;2024-03-22T00:18:50;101494.41;;;9.57;78.38
83248;BME280;73465;51.038;7.052;2024-03-22T00:21:16;101489.09;;;9.58;78.59
83248;BME280;73465;51.038;7.052;2024-03-22T00:23:42;101487.06;;;9.68;77.56
83248;BME280;73465;51.038;7.052;2024-03-22T00:26:09;101479.88;;;9.73;77.54
83248;BME280;73465;51.038;7.052;2024-03-22T00:28:34;101474.44;;;9.79;77.00
83248;BME280;73465;51.038;7.052;2024-03-22T00:31:00;101481.06;;;9.93;76.87
83248;BME280;73465;51.038;7.052;2024-03-22T00:33:25;101465.78;;;9.76;77.21
83248;BME280;73465;51.038;7.052;2024-03-22T00:35:50;101477.94;;;9.80;78.19
83248;BME280;73465;51.038;7.052;2024-03-22T00:38:16;101460.69;;;9.70;77.72
83248;BME280;73465;51.038;7.052;2024-03-22T00:40:41;101472.88;;;9.74;78.36
83248;BME280;73465;51.038;7.052;2024-03-22T00:43:07;101473.06;;;9.66;78.33
83248;BME280;73465;51.038;7.052;2024-03-22T00:45:32;101462.59;;;9.64;78.58
83248;BME280;73465;51.038;7.052;2024-03-22T00:47:58;101450.19;;;9.70;77.71
83248;BME280;73465;51.038;7.052;2024-03-22T00:50:23;101452.72;;;9.73;77.80
83248;BME280;73465;51.038;7.052;2024-03-22T00:52:50;101457.50;;;9.90;76.62
83248;BME280;73465;51.038;7.052;2024-03-22T00:55:16;101449.34;;;9.98;76.93
83248;BME280;73465;51.038;7.052;2024-03-22T00:57:41;101433.41;;;9.74;77.49
83248;BME280;73465;51.038;7.052;2024-03-22T01:00:07;101442.94;;;9.78;77.32
83248;BME280;73465;51.038;7.052;2024-03-22T01:02:33;101439.34;;;9.80;77.03
83248;BME280;73465;51.038;7.052;2024-03-22T01:04:58;101428.34;;;9.68;78.20
83248;BME280;73465;51.038;7.052;2024-03-22T01:07:25;101429.34;;;9.63;78.00
83248;BME280;73465;51.038;7.052;2024-03-22T01:09:51;101424.94;;;9.64;77.86
83248;BME280;73465;51.038;7.052;2024-03-22T01:12:17;101420.13;;;9.78;77.43
83248;BME280;73465;51.038;7.052;2024-03-22T01:14:43;101424.56;;;9.76;77.63
83248;BME280;73465;51.038;7.052;2024-03-22T01:17:08;101410.84;;;9.67;77.69
83248;BME280;73465;51.038;7.052;2024-03-22T01:19:34;101419.50;;;9.99;76.70
83248;BME280;73465;51.038;7.052;2024-03-22T01:21:59;101410.97;;;9.90;76.52
83248;BME280;73465;51.038;7.052;2024-03-22T01:24:25;101415.16;;;9.98;76.81
83248;BME280;73465;51.038;7.052;2024-03-22T01:26:51;101414.03;;;10.05;76.30
83248;BME280;73465;51.038;7.052;2024-03-22T01:29:17;101411.63;;;9.99;76.16
83248;BME280;73465;51.038;7.052;2024-03-22T01:31:42;101397.56;;;10.00;76.50
83248;BME280;73465;51.038;7.052;2024-03-22T01:34:08;101396.66;;;10.01;76.09
83248;BME280;73465;51.038;7.052;2024-03-22T01:36:33;101398.47;;;9.99;76.60
83248;BME280;73465;51.038;7.052;2024-03-22T01:38:58;101396.66;;;10.01;75.92
83248;BME280;73465;51.038;7.052;2024-03-22T01:41:24;101394.91;;;10.00;76.23
83248;BME280;73465;51.038;7.052;2024-03-22T01:43:49;101396.03;;;10.19;76.14
83248;BME280;73465;51.038;7.052;2024-03-22T01:46:14;101375.47;;;10.04;75.76
83248;BME280;73465;51.038;7.052;2024-03-22T01:48:40;101392.31;;;10.26;75.44
83248;BME280;73465;51.038;7.052;2024-03-22T01:51:06;101375.69;;;9.98;75.66
83248;BME280;73465;51.038;7.052;2024-03-22T01:53:32;101381.56;;;10.06;76.27
83248;BME280;73465;51.038;7.052;2024-03-22T01:56:00;101374.66;;;10.02;75.91
83248;BME280;73465;51.038;7.052;2024-03-22T01:58:27;101374.50;;;10.08;76.23
83248;BME280;73465;51.038;7.052;2024-03-22T02:00:53;101363.22;;;10.03;75.62
83248;BME280;73465;51.038;7.052;2024-03-22T02:03:19;101354.50;;;10.02;75.91
83248;BME280;73465;51.038;7.052;2024-03-22T02:05:44;101360.94;;;10.19;75.93
83248;BME280;73465;51.038;7.052;2024-03-22T02:08:09;101364.69;;;10.11;75.86
83248;BME280;73465;51.038;7.052;2024-03-22T02:10:35;101351.31;;;10.19;75.60
83248;BME280;73465;51.038;7.052;2024-03-22T02:13:00;101353.13;;;10.17;75.39
83248;BME280;73465;51.038;7.052;2024-03-22T02:15:26;101350.63;;;10.12;75.39
83248;BME280;73465;51.038;7.052;2024-03-22T02:17:51;101346.41;;;10.08;75.56
83248;BME280;73465;51.038;7.052;2024-03-22T02:20:17;101349.38;;;10.24;75.01
83248;BME280;73465;51.038;7.052;2024-03-22T02:22:42;101348.66;;;10.19;75.32
83248;BME280;73465;51.038;7.052;2024-03-22T02:25:07;101340.66;;;10.22;75.20
83248;BME280;73465;51.038;7.052;2024-03-22T02:27:34;101326.50;;;10.26;75.47
83248;BME280;73465;51.038;7.052;2024-03-22T02:29:59;101318.41;;;10.31;74.90
83248;BME280;73465;51.038;7.052;2024-03-22T02:32:24;101319.72;;;10.19;75.02
83248;BME280;73465;51.038;7.052;2024-03-22T02:34:51;101313.22;;;10.30;74.79
83248;BME280;73465;51.038;7.052;2024-03-22T02:37:16;101315.06;;;10.27;74.65
83248;BME280;73465;51.038;7.052;2024-03-22T02:39:42;101309.03;;;10.24;75.39
83248;BME280;73465;51.038;7.052;2024-03-22T02:42:08;101303.81;;;10.22;74.87
83248;BME280;73465;51.038;7.052;2024-03-22T02:44:33;101310.38;;;10.36;75.42
83248;BME280;73465;51.038;7.052;2024-03-22T02:46:59;101301.59;;;10.37;75.31
83248;BME280;73465;51.038;7.052;2024-03-22T02:49:25;101295.50;;;10.36;75.33
83248;BME280;73465;51.038;7.052;2024-03-22T02:51:51;101298.75;;;10.43;75.13
83248;BME280;73465;51.038;7.052;2024-03-22T02:54:18;101300.69;;;10.38;74.73
83248;BME280;73465;51.038;7.052;2024-03-22T02:56:43;101283.34;;;10.31;74.58
83248;BME280;73465;51.038;7.052;2024-03-22T02:59:08;101285.72;;;10.40;74.52
83248;BME280;73465;51.038;7.052;2024-03-22T03:01:34;101278.22;;;10.27;74.19
83248;BME280;73465;51.038;7.052;2024-03-22T03:03:59;101275.97;;;10.42;74.24
83248;BME280;73465;51.038;7.052;2024-03-22T03:06:24;101265.50;;;10.40;74.29
83248;BME280;73465;51.038;7.052;2024-03-22T03:08:50;101280.16;;;10.48;73.88
83248;BME280;73465;51.038;7.052;2024-03-22T03:11:15;101283.38;;;10.56;73.54
83248;BME280;73465;51.038;7.052;2024-03-22T03:13:41;101274.22;;;10.42;74.31
83248;BME280;73465;51.038;7.052;2024-03-22T03:16:07;101278.84;;;10.34;75.04
83248;BME280;73465;51.038;7.052;2024-03-22T03:18:32;101282.84;;;10.46;74.48
83248;BME280;73465;51.038;7.052;2024-03-22T03:20:57;101277.81;;;10.40;74.95
83248;BME280;73465;51.038;7.052;2024-03-22T03:23:23;101255.47;;;10.25;75.23
83248;BME280;73465;51.038;7.052;2024-03-22T03:25:48;101250.09;;;10.28;76.02
83248;BME280;73465;51.038;7.052;2024-03-22T03:28:14;101270.19;;;10.31;75.70
83248;BME280;73465;51.038;7.052;2024-03-22T03:30:39;101261.03;;;10.42;75.91
83248;BME280;73465;51.038;7.052;2024-03-22T03:33:04;101265.56;;;10.39;75.75
83248;BME280;73465;51.038;7.052;2024-03-22T03:35:30;101256.19;;;10.30;76.57
83248;BME280;73465;51.038;7.052;2024-03-22T03:37:57;101248.38;;;10.27;75.94
83248;BME280;73465;51.038;7.052;2024-03-22T03:40:23;101254.16;;;10.38;75.95
83248;BME280;73465;51.038;7.052;2024-03-22T03:42:50;101251.91;;;10.27;76.20
83248;BME280;73465;51.038;7.052;2024-03-22T03:45:16;101248.44;;;10.25;75.51
83248;BME280;73465;51.038;7.052;2024-03-22T03:47:41;101251.50;;;10.13;76.13
83248;BME280;73465;51.038;7.052;2024-03-22T03:50:06;101239.28;;;10.12;76.50
83248;BME280;73465;51.038;7.052;2024-03-22T03:52:34;101236.91;;;10.04;76.63
83248;BME280;73465;51.038;7.052;2024-03-22T03:54:59;101239.19;;;10.14;76.68
83248;BME280;73465;51.038;7.052;2024-03-22T03:57:25;101247.38;;;10.06;76.65
83248;BME280;73465;51.038;7.052;2024-03-22T03:59:51;101227.72;;;9.91;76.47
83248;BME280;73465;51.038;7.052;2024-03-22T04:02:16;101226.97;;;9.87;77.14
83248;BME280;73465;51.038;7.052;2024-03-22T04:04:43;101222.78;;;9.82;77.44
83248;BME280;73465;51.038;7.052;2024-03-22T04:07:08;101232.16;;;9.89;76.88
83248;BME280;73465;51.038;7.052;2024-03-22T04:09:34;101236.75;;;9.82;77.14
83248;BME280;73465;51.038;7.052;2024-03-22T04:11:59;101227.06;;;9.84;76.80
83248;BME280;73465;51.038;7.052;2024-03-22T04:14:25;101229.00;;;9.79;77.29
83248;BME280;73465;51.038;7.052;2024-03-22T04:16:51;101237.56;;;9.84;77.06
83248;BME280;73465;51.038;7.052;2024-03-22T04:19:16;101232.44;;;9.81;76.53
83248;BME280;73465;51.038;7.052;2024-03-22T04:21:43;101228.03;;;9.82;77.26
83248;BME280;73465;51.038;7.052;2024-03-22T04:24:08;101205.13;;;9.58;77.94
83248;BME280;73465;51.038;7.052;2024-03-22T04:26:33;101202.06;;;9.45;77.56
83248;BME280;73465;51.038;7.052;2024-03-22T04:28:59;101210.50;;;9.55;78.10
83248;BME280;73465;51.038;7.052;2024-03-22T04:31:24;101213.84;;;9.60;77.96
83248;BME280;73465;51.038;7.052;2024-03-22T04:33:49;101202.78;;;9.51;77.71
83248;BME280;73465;51.038;7.052;2024-03-22T04:36:15;101207.25;;;9.47;78.57
83248;BME280;73465;51.038;7.052;2024-03-22T04:38:40;101197.59;;;9.47;78.02
83248;BME280;73465;51.038;7.052;2024-03-22T04:41:05;101190.03;;;9.38;78.34
83248;BME280;73465;51.038;7.052;2024-03-22T04:43:31;101184.22;;;9.28;78.95
83248;BME280;73465;51.038;7.052;2024-03-22T04:45:56;101189.22;;;9.36;78.57
83248;BME280;73465;51.038;7.052;2024-03-22T04:48:23;101194.19;;;9.45;78.52
83248;BME280;73465;51.038;7.052;2024-03-22T04:50:49;101178.66;;;9.38;78.59
83248;BME280;73465;51.038;7.052;2024-03-22T04:53:19;101174.91;;;9.45;78.12
83248;BME280;73465;51.038;7.052;2024-03-22T04:55:46;101179.09;;;9.51;78.60
83248;BME280;73465;51.038;7.052;2024-03-22T04:58:22;101169.22;;;9.57;77.63
83248;BME280;73465;51.038;7.052;2024-03-22T05:00:48;101171.91;;;9.56;78.58
83248;BME280;73465;51.038;7.052;2024-03-22T05:03:16;101159.59;;;9.58;77.81
83248;BME280;73465;51.038;7.052;2024-03-22T05:05:43;101165.47;;;9.64;78.21
83248;BME280;73465;51.038;7.052;2024-03-22T05:08:08;101166.78;;;9.78;77.58
83248;BME280;73465;51.038;7.052;2024-03-22T05:10:34;101160.41;;;9.85;77.42
83248;BME280;73465;51.038;7.052;2024-03-22T05:13:01;101159.16;;;9.95;77.63
83248;BME280;73465;51.038;7.052;2024-03-22T05:15:26;101166.72;;;10.05;76.65
83248;BME280;73465;51.038;7.052;2024-03-22T05:17:53;101151.22;;;9.97;76.99
83248;BME280;73465;51.038;7.052;2024-03-22T05:20:19;101145.91;;;9.99;77.27
83248;BME280;73465;51.038;7.052;2024-03-22T05:22:44;101153.47;;;10.08;77.37
83248;BME280;73465;51.038;7.052;2024-03-22T05:25:09;101158.59;;;10.11;76.95
83248;BME280;73465;51.038;7.052;2024-03-22T05:27:35;101153.50;;;10.06;76.84
83248;BME280;73465;51.038;7.052;2024-03-22T05:30:01;101152.53;;;10.09;77.30
83248;BME280;73465;51.038;7.052;2024-03-22T05:32:26;101152.94;;;10.22;76.86
83248;BME280;73465;51.038;7.052;2024-03-22T05:34:52;101146.03;;;10.19;76.93
83248;BME280;73465;51.038;7.052;2024-03-22T05:37:18;101151.38;;;10.18;76.55
83248;BME280;73465;51.038;7.052;2024-03-22T05:39:43;101149.25;;;10.27;76.39
83248;BME280;73465;51.038;7.052;2024-03-22T05:42:10;101161.16;;;10.38;75.50
83248;BME280;73465;51.038;7.052;2024-03-22T05:44:35;101147.88;;;10.41;75.50
83248;BME280;73465;51.038;7.052;2024-03-22T05:47:01;101161.84;;;10.43;75.95
83248;BME280;73465;51.038;7.052;2024-03-22T05:49:26;101148.28;;;10.54;75.99
83248;BME280;73465;51.038;7.052;2024-03-22T05:51:53;101147.56;;;10.25;76.12
83248;BME280;73465;51.038;7.052;2024-03-22T05:54:18;101145.22;;;10.42;76.26
83248;BME280;73465;51.038;7.052;2024-03-22T05:56:43;101146.19;;;10.40;75.70
83248;BME280;73465;51.038;7.052;2024-03-22T05:59:09;101142.41;;;10.47;75.91
83248;BME280;73465;51.038;7.052;2024-03-22T06:01:35;101138.72;;;10.51;75.44
83248;BME280;73465;51.038;7.052;2024-03-22T06:04:02;101144.09;;;10.72;75.29
83248;BME280;73465;51.038;7.052;2024-03-22T06:06:28;101134.69;;;10.65;74.52
83248;BME280;73465;51.038;7.052;2024-03-22T06:08:54;101144.75;;;10.77;74.85
83248;BME280;73465;51.038;7.052;2024-03-22T06:11:20;101143.28;;;10.92;74.65
83248;BME280;73465;51.038;7.052;2024-03-22T06:13:50;101132.81;;;10.68;75.21
83248;BME280;73465;51.038;7.052;2024-03-22T06:16:16;101131.41;;;10.82;74.67
83248;BME280;73465;51.038;7.052;2024-03-22T06:18:41;101131.91;;;10.91;75.03
83248;BME280;73465;51.038;7.052;2024-03-22T06:21:08;101133.47;;;10.96;74.36
83248;BME280;73465;51.038;7.052;2024-03-22T06:23:33;101127.22;;;10.98;74.31
83248;BME280;73465;51.038;7.052;2024-03-22T06:26:00;101120.31;;;10.96;75.06
83248;BME280;73465;51.038;7.052;2024-03-22T06:28:27;101136.28;;;11.13;74.53
83248;BME280;73465;51.038;7.052;2024-03-22T06:30:53;101123.16;;;11.12;73.92
83248;BME280;73465;51.038;7.052;2024-03-22T06:33:21;101127.59;;;11.11;73.93
83248;BME280;73465;51.038;7.052;2024-03-22T06:35:47;101129.78;;;11.22;73.99
83248;BME280;73465;51.038;7.052;2024-03-22T06:38:13;101131.56;;;11.21;74.42
83248;BME280;73465;51.038;7.052;2024-03-22T06:40:38;101121.16;;;11.39;73.76
83248;BME280;73465;51.038;7.052;2024-03-22T06:43:03;101126.38;;;11.40;73.60
83248;BME280;73465;51.038;7.052;2024-03-22T06:45:30;101126.31;;;11.42;73.76
83248;BME280;73465;51.038;7.052;2024-03-22T06:47:55;101129.22;;;11.56;74.17
83248;BME280;73465;51.038;7.052;2024-03-22T06:50:21;101127.16;;;11.63;73.13
83248;BME280;73465;51.038;7.052;2024-03-22T06:52:57;101124.88;;;11.76;72.50
83248;BME280;73465;51.038;7.052;2024-03-22T06:55:22;101114.31;;;11.76;72.52
83248;BME280;73465;51.038;7.052;2024-03-22T06:57:48;101105.19;;;11.83;72.30
83248;BME280;73465;51.038;7.052;2024-03-22T07:00:15;101111.69;;;11.97;72.03
83248;BME280;73465;51.038;7.052;2024-03-22T07:02:41;101104.66;;;11.96;72.16
83248;BME280;73465;51.038;7.052;2024-03-22T07:05:08;101098.84;;;12.08;71.22
83248;BME280;73465;51.038;7.052;2024-03-22T07:07:34;101099.34;;;12.16;71.70
83248;BME280;73465;51.038;7.052;2024-03-22T07:10:00;101098.69;;;12.11;71.98
83248;BME280;73465;51.038;7.052;2024-03-22T07:12:25;101091.34;;;12.18;71.01
83248;BME280;73465;51.038;7.052;2024-03-22T07:14:50;101101.44;;;12.29;70.90
83248;BME280;73465;51.038;7.052;2024-03-22T07:17:16;101105.22;;;12.42;70.40
83248;BME280;73465;51.038;7.052;2024-03-22T07:19:41;101092.13;;;12.58;69.95
83248;BME280;73465;51.038;7.052;2024-03-22T07:22:07;101099.94;;;12.79;69.51
83248;BME280;73465;51.038;7.052;2024-03-22T07:24:33;101099.91;;;13.15;68.23
83248;BME280;73465;51.038;7.052;2024-03-22T07:26:58;101092.53;;;13.22;67.45
83248;BME280;73465;51.038;7.052;2024-03-22T07:29:23;101102.50;;;13.52;66.99
83248;BME280;73465;51.038;7.052;2024-03-22T07:31:49;101101.81;;;13.66;66.21
83248;BME280;73465;51.038;7.052;2024-03-22T07:34:15;101096.00;;;13.75;65.47
83248;BME280;73465;51.038;7.052;2024-03-22T07:36:40;101094.56;;;13.70;66.14
83248;BME280;73465;51.038;7.052;2024-03-22T07:39:06;101080.72;;;13.80;65.55
83248;BME280;73465;51.038;7.052;2024-03-22T07:41:33;101084.03;;;13.68;65.63
83248;BME280;73465;51.038;7.052;2024-03-22T07:43:59;101084.94;;;13.85;65.76
83248;BME280;73465;51.038;7.052;2024-03-22T07:46:26;101079.84;;;13.64;66.03
83248;BME280;73465;51.038;7.052;2024-03-22T07:48:52;101079.38;;;13.73;65.76
83248;BME280;73465;51.038;7.052;2024-03-22T07:51:17;101082.06;;;13.89;65.93
83248;BME280;73465;51.038;7.052;2024-03-22T07:53:43;101079.34;;;14.07;65.14
83248;BME280;73465;51.038;7.052;2024-03-22T07:56:08;101065.09;;;14.25;64.62
83248;BME280;73465;51.038;7.052;2024-03-22T07:58:34;101070.47;;;14.56;63.74
83248;BME280;73465;51.038;7.052;2024-03-22T08:00:59;101062.59;;;14.86;62.83
83248;BME280;73465;51.038;7.052;2024-03-22T08:03:24;101057.56;;;14.82;62.76
83248;BME280;73465;51.038;7.052;2024-03-22T08:05:51;101067.13;;;15.15;62.03
83248;BME280;73465;51.038;7.052;2024-03-22T08:08:16;101063.78;;;15.42;61.78
83248;BME280;73465;51.038;7.052;2024-03-22T08:10:42;101066.34;;;15.43;60.73
83248;BME280;73465;51.038;7.052;2024-03-22T08:13:09;101056.53;;;15.15;61.47
83248;BME280;73465;51.038;7.052;2024-03-22T08:15:35;101059.38;;;15.26;61.28
83248;BME280;73465;51.038;7.052;2024-03-22T08:18:00;101043.91;;;15.49;61.13
83248;BME280;73465;51.038;7.052;2024-03-22T08:20:26;101056.78;;;15.69;60.80
83248;BME280;73465;51.038;7.052;2024-03-22T08:22:53;101052.25;;;15.86;59.84
83248;BME280;73465;51.038;7.052;2024-03-22T08:25:19;101062.56;;;16.05;59.25
83248;BME280;73465;51.038;7.052;2024-03-22T08:27:48;101056.25;;;15.93;59.28
83248;BME280;73465;51.038;7.052;2024-03-22T08:30:13;101042.97;;;15.93;59.90
83248;BME280;73465;51.038;7.052;2024-03-22T08:32:39;101038.47;;;16.50;58.72
83248;BME280;73465;51.038;7.052;2024-03-22T08:35:05;101042.75;;;16.80;57.63
83248;BME280;73465;51.038;7.052;2024-03-22T08:37:32;101038.50;;;16.90;56.84
83248;BME280;73465;51.038;7.052;2024-03-22T08:39:58;101031.88;;;16.83;56.19
83248;BME280;73465;51.038;7.052;2024-03-22T08:42:23;101018.38;;;16.46;56.77
83248;BME280;73465;51.038;7.052;2024-03-22T08:44:49;101021.13;;;16.72;57.14
83248;BME280;73465;51.038;7.052;2024-03-22T08:47:14;101011.72;;;16.66;56.56
83248;BME280;73465;51.038;7.052;2024-03-22T08:49:39;101016.09;;;16.67;56.27
83248;BME280;73465;51.038;7.052;2024-03-22T08:52:06;101024.88;;;16.55;56.35
83248;BME280;73465;51.038;7.052;2024-03-22T08:54:33;101019.69;;;16.53;56.07
83248;BME280;73465;51.038;7.052;2024-03-22T08:56:59;101021.66;;;16.77;55.78
83248;BME280;73465;51.038;7.052;2024-03-22T08:59:24;101022.94;;;16.84;55.52
83248;BME280;73465;51.038;7.052;2024-03-22T09:01:50;101028.81;;;16.34;55.85
83248;BME280;73465;51.038;7.052;2024-03-22T09:04:15;101008.56;;;15.92;56.08
83248;BME280;73465;51.038;7.052;2024-03-22T09:06:41;101025.47;;;16.18;56.33
83248;BME280;73465;51.038;7.052;2024-03-22T09:09:09;101007.81;;;16.17;55.12
83248;BME280;73465;51.038;7.052;2024-03-22T09:11:34;101015.50;;;16.22;54.96
83248;BME280;73465;51.038;7.052;2024-03-22T09:13:59;101018.31;;;16.60;53.76
83248;BME280;73465;51.038;7.052;2024-03-22T09:16:25;101023.38;;;16.78;53.46
83248;BME280;73465;51.038;7.052;2024-03-22T09:18:50;101003.69;;;16.80;53.41
83248;BME280;73465;51.038;7.052;2024-03-22T09:21:16;101016.31;;;17.30;52.63
83248;BME280;73465;51.038;7.052;2024-03-22T09:23:41;101016.25;;;17.31;52.11
83248;BME280;73465;51.038;7.052;2024-03-22T09:26:09;101009.72;;;17.10;52.39
83248;BME280;73465;51.038;7.052;2024-03-22T09:28:34;101016.06;;;16.94;52.90
83248;BME280;73465;51.038;7.052;2024-03-22T09:31:06;101026.06;;;16.63;53.11
83248;BME280;73465;51.038;7.052;2024-03-22T09:33:35;101019.63;;;16.40;53.76
83248;BME280;73465;51.038;7.052;2024-03-22T09:36:01;101010.19;;;16.49;53.84
83248;BME280;73465;51.038;7.052;2024-03-22T09:38:27;101001.56;;;16.73;53.41
83248;BME280;73465;51.038;7.052;2024-03-22T09:40:53;101000.91;;;16.69;53.50
83248;BME280;73465;51.038;7.052;2024-03-22T09:43:21;100992.28;;;16.78;53.07
83248;BME280;73465;51.038;7.052;2024-03-22T09:45:47;100991.63;;;16.75;52.56
83248;BME280;73465;51.038;7.052;2024-03-22T09:48:14;100976.78;;;16.85;52.31
83248;BME280;73465;51.038;7.052;2024-03-22T09:50:40;100980.44;;;16.97;52.26
83248;BME280;73465;51.038;7.052;2024-03-22T09:53:06;100993.25;;;17.30;52.20
83248;BME280;73465;51.038;7.052;2024-03-22T09:55:33;100975.53;;;17.16;52.17
83248;BME280;73465;51.038;7.052;2024-03-22T09:58:01;100981.31;;;17.23;51.83
83248;BME280;73465;51.038;7.052;2024-03-22T10:00:27;100978.84;;;17.59;51.28
83248;BME280;73465;51.038;7.052;2024-03-22T10:02:53;100971.28;;;17.53;50.82
83248;BME280;73465;51.038;7.052;2024-03-22T10:05:21;100968.81;;;18.12;50.10
83248;BME280;73465;51.038;7.052;2024-03-22T10:07:46;100969.22;;;18.43;49.34
83248;BME280;73465;51.038;7.052;2024-03-22T10:10:12;100969.16;;;18.08;49.77
83248;BME280;73465;51.038;7.052;2024-03-22T10:12:39;100966.38;;;18.34;50.00
83248;BME280;73465;51.038;7.052;2024-03-22T10:15:05;100969.66;;;18.37;49.45
83248;BME280;73465;51.038;7.052;2024-03-22T10:17:35;100961.09;;;18.45;48.85
83248;BME280;73465;51.038;7.052;2024-03-22T10:20:01;100962.22;;;17.92;50.15
83248;BME280;73465;51.038;7.052;2024-03-22T10:22:26;100952.25;;;17.96;49.53
83248;BME280;73465;51.038;7.052;2024-03-22T10:24:52;100948.53;;;17.73;49.72
83248;BME280;73465;51.038;7.052;2024-03-22T10:27:18;100952.84;;;17.49;50.64
83248;BME280;73465;51.038;7.052;2024-03-22T10:29:45;100967.03;;;17.50;51.37
83248;BME280;73465;51.038;7.052;2024-03-22T10:32:11;100953.31;;;17.17;51.79
83248;BME280;73465;51.038;7.052;2024-03-22T10:34:37;100943.28;;;16.82;52.77
83248;BME280;73465;51.038;7.052;2024-03-22T10:37:08;100947.66;;;16.96;52.66
83248;BME280;73465;51.038;7.052;2024-03-22T10:39:33;100939.56;;;17.37;51.83
83248;BME280;73465;51.038;7.052;2024-03-22T10:41:59;100942.16;;;16.99;52.80
83248;BME280;73465;51.038;7.052;2024-03-22T10:44:24;100930.81;;;16.70;53.22
83248;BME280;73465;51.038;7.052;2024-03-22T10:46:50;100933.91;;;16.77;53.63
83248;BME280;73465;51.038;7.052;2024-03-22T10:49:19;100923.16;;;16.91;53.35
83248;BME280;73465;51.038;7.052;2024-03-22T10:51:57;100921.22;;;16.67;53.83
83248;BME280;73465;51.038;7.052;2024-03-22T10:54:30;100930.94;;;16.94;53.26
83248;BME280;73465;51.038;7.052;2024-03-22T10:56:57;100916.97;;;16.91;53.30
83248;BME280;73465;51.038;7.052;2024-03-22T10:59:23;100912.06;;;17.49;52.33
83248;BME280;73465;51.038;7.052;2024-03-22T11:01:49;100923.75;;;17.59;52.26
83248;BME280;73465;51.038;7.052;2024-03-22T11:04:19;100907.59;;;17.87;51.37
83248;BME280;73465;51.038;7.052;2024-03-22T11:06:49;100906.88;;;17.35;52.42
83248;BME280;73465;51.038;7.052;2024-03-22T11:09:21;100912.75;;;17.14;53.32
83248;BME280;73465;51.038;7.052;2024-03-22T11:11:47;100905.84;;;17.24;52.96
83248;BME280;73465;51.038;7.052;2024-03-22T11:14:12;100888.09;;;17.12;52.93
83248;BME280;73465;51.038;7.052;2024-03-22T11:16:38;100899.00;;;17.83;52.06
83248;BME280;73465;51.038;7.052;2024-03-22T11:19:04;100894.88;;;17.03;53.87
83248;BME280;73465;51.038;7.052;2024-03-22T11:21:34;100885.41;;;16.60;54.17
83248;BME280;73465;51.038;7.052;2024-03-22T11:24:02;100897.59;;;16.50;54.61
83248;BME280;73465;51.038;7.052;2024-03-22T11:26:28;100871.94;;;16.36;55.43
83248;BME280;73465;51.038;7.052;2024-03-22T11:28:54;100872.63;;;16.65;54.48
83248;BME280;73465;51.038;7.052;2024-03-22T11:31:19;100882.75;;;16.86;54.41
83248;BME280;73465;51.038;7.052;2024-03-22T11:33:47;100874.25;;;16.94;54.50
83248;BME280;73465;51.038;7.052;2024-03-22T11:36:13;100870.28;;;17.12;53.43
83248;BME280;73465;51.038;7.052;2024-03-22T11:38:38;100864.63;;;17.30;52.64
83248;BME280;73465;51.038;7.052;2024-03-22T11:41:04;100862.00;;;17.17;52.57
83248;BME280;73465;51.038;7.052;2024-03-22T11:43:30;100872.22;;;17.60;51.85
83248;BME280;73465;51.038;7.052;2024-03-22T11:45:55;100847.66;;;18.05;50.71
83248;BME280;73465;51.038;7.052;2024-03-22T11:48:21;100864.72;;;18.03;50.99
83248;BME280;73465;51.038;7.052;2024-03-22T11:50:47;100860.59;;;19.04;49.57
83248;BME280;73465;51.038;7.052;2024-03-22T11:53:12;100862.28;;;19.16;48.20
83248;BME280;73465;51.038;7.052;2024-03-22T11:55:38;100849.44;;;19.21;48.07
83248;BME280;73465;51.038;7.052;2024-03-22T11:58:04;100854.84;;;19.54;46.61
83248;BME280;73465;51.038;7.052;2024-03-22T12:00:30;100853.28;;;19.51;46.13
83248;BME280;73465;51.038;7.052;2024-03-22T12:02:56;100849.50;;;18.52;47.60
83248;BME280;73465;51.038;7.052;2024-03-22T12:05:22;100846.44;;;18.45;47.83
83248;BME280;73465;51.038;7.052;2024-03-22T12:07:47;100850.84;;;18.80;46.81
83248;BME280;73465;51.038;7.052;2024-03-22T12:10:14;100842.94;;;18.44;47.67
83248;BME280;73465;51.038;7.052;2024-03-22T12:12:39;100844.22;;;18.39;47.87
83248;BME280;73465;51.038;7.052;2024-03-22T12:15:05;100832.28;;;18.56;47.90
83248;BME280;73465;51.038;7.052;2024-03-22T12:17:31;100844.66;;;17.73;48.09
83248;BME280;73465;51.038;7.052;2024-03-22T12:19:58;100831.19;;;17.39;49.28
83248;BME280;73465;51.038;7.052;2024-03-22T12:22:25;100826.59;;;17.65;49.21
83248;BME280;73465;51.038;7.052;2024-03-22T12:24:51;100835.66;;;17.38;49.11
83248;BME280;73465;51.038;7.052;2024-03-22T12:27:18;100832.22;;;17.36;49.78
83248;BME280;73465;51.038;7.052;2024-03-22T12:29:43;100827.22;;;16.94;49.84
83248;BME280;73465;51.038;7.052;2024-03-22T12:32:09;100825.19;;;16.72;50.13
83248;BME280;73465;51.038;7.052;2024-03-22T12:34:35;100811.88;;;16.72;50.78
83248;BME280;73465;51.038;7.052;2024-03-22T12:37:00;100810.28;;;16.69;51.21
83248;BME280;73465;51.038;7.052;2024-03-22T12:39:26;100798.50;;;16.61;51.34
83248;BME280;73465;51.038;7.052;2024-03-22T12:41:51;100829.22;;;16.78;51.53
83248;BME280;73465;51.038;7.052;2024-03-22T12:44:17;100799.13;;;16.64;51.87
83248;BME280;73465;51.038;7.052;2024-03-22T12:46:43;100806.56;;;16.85;52.00